sensor_id;sensor_type;location;lat;lon;timestamp;P1;durP1;ratioP1;P2;durP2;ratioP2
20318;SDS011;10317;47.254;11.314;2024-03-22T00:01:52;5.75;;;5.22;;
20318;SDS011;10317;47.254;11.314;2024-03-22T00:04:19;7.43;;;5.07;;
20318;SDS011;10317;47.254;11.314;2024-03-22T00:06:46;7.22;;;4.97;;
20318;SDS011;10317;47.254;11.314;2024-03-22T00:09:12;5.95;;;5.15;;
20318;SDS011;10317;47.254;11.314;2024-03-22T00:11:39;7.15;;;6.18;;
20318;SDS011;10317;47.254;11.314;2024-03-22T00:14:05;7.55;;;5.70;;
20318;SDS011;10317;47.254;11.314;2024-03-22T00:16:32;9.45;;;7.00;;
20318;SDS011;10317;47.254;11.314;2024-03-22T00:18:57;7.55;;;6.78;;
20318;SDS011;10317;47.254;11.314;2024-03-22T00:21:23;6.53;;;5.82;;
20318;SDS011;10317;47.254;11.314;2024-03-22T00:23:49;7.32;;;6.30;;
20318;SDS011;10317;47.254;11.314;2024-03-22T00:26:14;5.20;;;4.68;;
20318;SDS011;10317;47.254;11.314;2024-03-22T00:28:40;7.82;;;5.70;;
20318;SDS011;10317;47.254;11.314;2024-03-22T00:31:06;6.45;;;5.78;;
20318;SDS011;10317;47.254;11.314;2024-03-22T00:33:33;6.90;;;5.85;;
20318;SDS011;10317;47.254;11.314;2024-03-22T00:35:58;8.05;;;5.18;;
20318;SDS011;10317;47.254;11.314;2024-03-22T00:38:24;7.72;;;6.03;;
20318;SDS011;10317;47.254;11.314;2024-03-22T00:40:50;6.50;;;5.57;;
20318;SDS011;10317;47.254;11.314;2024-03-22T00:43:15;6.47;;;5.88;;
20318;SDS011;10317;47.254;11.314;2024-03-22T00:45:41;6.50;;;5.45;;
20318;SDS011;10317;47.254;11.314;2024-03-22T00:48:07;6.85;;;5.78;;
20318;SDS011;10317;47.254;11.314;2024-03-22T00:50:33;7.88;;;6.20;;
20318;SDS011;10317;47.254;11.314;2024-03-22T00:52:58;6.88;;;6.07;;
20318;SDS011;10317;47.254;11.314;2024-03-22T00:55:24;8.05;;;5.88;;
20318;SDS011;10317;47.254;11.314;2024-03-22T00:57:50;8.18;;;5.90;;
20318;SDS011;10317;47.254;11.314;2024-03-22T01:00:16;8.82;;;5.53;;
20318;SDS011;10317;47.254;11.314;2024-03-22T01:02:43;5.65;;;5.07;;
20318;SDS011;10317;47.254;11.314;2024-03-22T01:05:09;6.68;;;5.15;;
20318;SDS011;10317;47.254;11.314;2024-03-22T01:07:35;6.53;;;5.05;;
20318;SDS011;10317;47.254;11.314;2024-03-22T01:10:02;6.40;;;5.80;;
20318;SDS011;10317;47.254;11.314;2024-03-22T01:12:28;7.35;;;5.70;;
20318;SDS011;10317;47.254;11.314;2024-03-22T01:14:54;7.53;;;6.15;;
20318;SDS011;10317;47.254;11.314;2024-03-22T01:17:20;8.20;;;6.53;;
20318;SDS011;10317;47.254;11.314;2024-03-22T01:19:46;7.00;;;5.93;;
20318;SDS011;10317;47.254;11.314;2024-03-22T01:22:11;7.57;;;5.63;;
20318;SDS011;10317;47.254;11.314;2024-03-22T01:24:37;8.73;;;7.10;;
20318;SDS011;10317;47.254;11.314;2024-03-22T01:27:03;8.70;;;6.43;;
20318;SDS011;10317;47.254;11.314;2024-03-22T01:29:29;5.88;;;5.35;;
20318;SDS011;10317;47.254;11.314;2024-03-22T01:31:57;6.65;;;5.18;;
20318;SDS011;10317;47.254;11.314;2024-03-22T01:34:23;10.55;;;6.35;;
20318;SDS011;10317;47.254;11.314;2024-03-22T01:36:49;6.47;;;5.82;;
20318;SDS011;10317;47.254;11.314;2024-03-22T01:39:15;6.22;;;5.63;;
20318;SDS011;10317;47.254;11.314;2024-03-22T01:41:42;6.82;;;6.13;;
20318;SDS011;10317;47.254;11.314;2024-03-22T01:44:08;7.25;;;5.88;;
20318;SDS011;10317;47.254;11.314;2024-03-22T01:46:34;6.50;;;5.80;;
20318;SDS011;10317;47.254;11.314;2024-03-22T01:49:00;7.60;;;6.50;;
20318;SDS011;10317;47.254;11.314;2024-03-22T01:51:26;7.00;;;5.80;;
20318;SDS011;10317;47.254;11.314;2024-03-22T01:53:52;7.25;;;6.55;;
20318;SDS011;10317;47.254;11.314;2024-03-22T01:56:19;8.20;;;6.75;;
20318;SDS011;10317;47.254;11.314;2024-03-22T01:58:45;7.65;;;5.57;;
20318;SDS011;10317;47.254;11.314;2024-03-22T02:01:11;6.70;;;5.90;;
20318;SDS011;10317;47.254;11.314;2024-03-22T02:03:36;6.90;;;6.20;;
20318;SDS011;10317;47.254;11.314;2024-03-22T02:06:02;7.80;;;6.13;;
20318;SDS011;10317;47.254;11.314;2024-03-22T02:08:28;5.97;;;5.20;;
20318;SDS011;10317;47.254;11.314;2024-03-22T02:10:53;7.25;;;6.28;;
20318;SDS011;10317;47.254;11.314;2024-03-22T02:13:19;10.25;;;6.95;;
20318;SDS011;10317;47.254;11.314;2024-03-22T02:15:45;7.70;;;6.32;;
20318;SDS011;10317;47.254;11.314;2024-03-22T02:18:10;8.70;;;6.63;;
20318;SDS011;10317;47.254;11.314;2024-03-22T02:20:36;6.97;;;5.60;;
20318;SDS011;10317;47.254;11.314;2024-03-22T02:23:02;6.72;;;5.38;;
20318;SDS011;10317;47.254;11.314;2024-03-22T02:25:27;7.22;;;6.15;;
20318;SDS011;10317;47.254;11.314;2024-03-22T02:27:53;6.50;;;5.30;;
20318;SDS011;10317;47.254;11.314;2024-03-22T02:30:19;10.35;;;6.05;;
20318;SDS011;10317;47.254;11.314;2024-03-22T02:32:44;6.43;;;5.57;;
20318;SDS011;10317;47.254;11.314;2024-03-22T02:35:10;5.22;;;4.70;;
20318;SDS011;10317;47.254;11.314;2024-03-22T02:37:36;7.00;;;5.45;;
20318;SDS011;10317;47.254;11.314;2024-03-22T02:40:01;7.28;;;5.85;;
20318;SDS011;10317;47.254;11.314;2024-03-22T02:42:27;8.30;;;5.15;;
20318;SDS011;10317;47.254;11.314;2024-03-22T02:44:53;7.05;;;5.60;;
20318;SDS011;10317;47.254;11.314;2024-03-22T02:47:18;6.47;;;5.22;;
20318;SDS011;10317;47.254;11.314;2024-03-22T02:49:44;5.20;;;4.30;;
20318;SDS011;10317;47.254;11.314;2024-03-22T02:52:10;6.38;;;5.55;;
20318;SDS011;10317;47.254;11.314;2024-03-22T02:54:35;7.18;;;4.97;;
20318;SDS011;10317;47.254;11.314;2024-03-22T02:57:01;7.53;;;5.03;;
20318;SDS011;10317;47.254;11.314;2024-03-22T02:59:27;5.68;;;4.90;;
20318;SDS011;10317;47.254;11.314;2024-03-22T03:01:53;6.57;;;4.70;;
20318;SDS011;10317;47.254;11.314;2024-03-22T03:04:19;6.82;;;5.07;;
20318;SDS011;10317;47.254;11.314;2024-03-22T03:06:45;5.13;;;4.63;;
20318;SDS011;10317;47.254;11.314;2024-03-22T03:09:10;5.22;;;4.72;;
20318;SDS011;10317;47.254;11.314;2024-03-22T03:11:38;8.35;;;5.90;;
20318;SDS011;10317;47.254;11.314;2024-03-22T03:14:06;8.15;;;4.57;;
20318;SDS011;10317;47.254;11.314;2024-03-22T03:16:32;8.95;;;4.90;;
20318;SDS011;10317;47.254;11.314;2024-03-22T03:18:58;5.85;;;5.22;;
20318;SDS011;10317;47.254;11.314;2024-03-22T03:21:23;6.78;;;4.93;;
20318;SDS011;10317;47.254;11.314;2024-03-22T03:23:49;4.60;;;4.20;;
20318;SDS011;10317;47.254;11.314;2024-03-22T03:26:15;5.50;;;5.00;;
20318;SDS011;10317;47.254;11.314;2024-03-22T03:28:41;6.50;;;5.68;;
20318;SDS011;10317;47.254;11.314;2024-03-22T03:31:06;6.22;;;5.07;;
20318;SDS011;10317;47.254;11.314;2024-03-22T03:33:32;7.28;;;4.95;;
20318;SDS011;10317;47.254;11.314;2024-03-22T03:35:57;7.85;;;5.85;;
20318;SDS011;10317;47.254;11.314;2024-03-22T03:38:23;6.90;;;5.43;;
20318;SDS011;10317;47.254;11.314;2024-03-22T03:40:49;7.47;;;6.35;;
20318;SDS011;10317;47.254;11.314;2024-03-22T03:43:14;9.45;;;6.15;;
20318;SDS011;10317;47.254;11.314;2024-03-22T03:45:40;5.65;;;5.15;;
20318;SDS011;10317;47.254;11.314;2024-03-22T03:48:06;6.22;;;5.50;;
20318;SDS011;10317;47.254;11.314;2024-03-22T03:50:31;6.97;;;5.55;;
20318;SDS011;10317;47.254;11.314;2024-03-22T03:52:57;7.10;;;5.57;;
20318;SDS011;10317;47.254;11.314;2024-03-22T03:55:23;5.72;;;4.93;;
20318;SDS011;10317;47.254;11.314;2024-03-22T03:57:52;5.50;;;4.68;;
20318;SDS011;10317;47.254;11.314;2024-03-22T04:00:20;5.18;;;4.78;;
20318;SDS011;10317;47.254;11.314;2024-03-22T04:02:48;16.83;;;4.72;;
20318;SDS011;10317;47.254;11.314;2024-03-22T04:05:14;5.40;;;4.70;;
20318;SDS011;10317;47.254;11.314;2024-03-22T04:07:40;5.13;;;4.63;;
20318;SDS011;10317;47.254;11.314;2024-03-22T04:10:07;4.88;;;4.35;;
20318;SDS011;10317;47.254;11.314;2024-03-22T04:12:33;4.80;;;4.40;;
20318;SDS011;10317;47.254;11.314;2024-03-22T04:14:59;4.38;;;4.03;;
20318;SDS011;10317;47.254;11.314;2024-03-22T04:17:25;4.47;;;4.00;;
20318;SDS011;10317;47.254;11.314;2024-03-22T04:19:51;4.72;;;4.32;;
20318;SDS011;10317;47.254;11.314;2024-03-22T04:22:17;6.13;;;4.50;;
20318;SDS011;10317;47.254;11.314;2024-03-22T04:24:43;4.72;;;4.32;;
20318;SDS011;10317;47.254;11.314;2024-03-22T04:27:08;5.43;;;4.50;;
20318;SDS011;10317;47.254;11.314;2024-03-22T04:29:34;5.72;;;4.40;;
20318;SDS011;10317;47.254;11.314;2024-03-22T04:31:59;4.93;;;4.35;;
20318;SDS011;10317;47.254;11.314;2024-03-22T04:34:25;4.35;;;4.05;;
20318;SDS011;10317;47.254;11.314;2024-03-22T04:36:51;5.40;;;4.32;;
20318;SDS011;10317;47.254;11.314;2024-03-22T04:39:17;5.22;;;4.72;;
20318;SDS011;10317;47.254;11.314;2024-03-22T04:41:45;4.32;;;3.92;;
20318;SDS011;10317;47.254;11.314;2024-03-22T04:44:11;4.93;;;4.40;;
20318;SDS011;10317;47.254;11.314;2024-03-22T04:46:36;4.22;;;3.88;;
20318;SDS011;10317;47.254;11.314;2024-03-22T04:49:02;4.70;;;3.65;;
20318;SDS011;10317;47.254;11.314;2024-03-22T04:51:28;4.88;;;4.20;;
20318;SDS011;10317;47.254;11.314;2024-03-22T04:53:53;4.38;;;3.97;;
20318;SDS011;10317;47.254;11.314;2024-03-22T04:56:19;4.07;;;3.70;;
20318;SDS011;10317;47.254;11.314;2024-03-22T04:58:45;4.82;;;4.32;;
20318;SDS011;10317;47.254;11.314;2024-03-22T05:01:10;4.18;;;3.78;;
20318;SDS011;10317;47.254;11.314;2024-03-22T05:03:37;4.25;;;3.65;;
20318;SDS011;10317;47.254;11.314;2024-03-22T05:06:03;6.03;;;3.95;;
20318;SDS011;10317;47.254;11.314;2024-03-22T05:08:31;4.03;;;3.72;;
20318;SDS011;10317;47.254;11.314;2024-03-22T05:10:57;4.30;;;3.90;;
20318;SDS011;10317;47.254;11.314;2024-03-22T05:13:22;4.50;;;3.97;;
20318;SDS011;10317;47.254;11.314;2024-03-22T05:15:48;4.93;;;4.43;;
20318;SDS011;10317;47.254;11.314;2024-03-22T05:18:14;4.97;;;4.47;;
20318;SDS011;10317;47.254;11.314;2024-03-22T05:20:39;4.25;;;3.90;;
20318;SDS011;10317;47.254;11.314;2024-03-22T05:23:05;4.38;;;3.97;;
20318;SDS011;10317;47.254;11.314;2024-03-22T05:25:31;4.13;;;3.47;;
20318;SDS011;10317;47.254;11.314;2024-03-22T05:27:56;3.83;;;3.58;;
20318;SDS011;10317;47.254;11.314;2024-03-22T05:30:22;3.92;;;3.63;;
20318;SDS011;10317;47.254;11.314;2024-03-22T05:32:47;6.18;;;3.88;;
20318;SDS011;10317;47.254;11.314;2024-03-22T05:35:15;4.28;;;3.63;;
20318;SDS011;10317;47.254;11.314;2024-03-22T05:37:41;4.70;;;3.78;;
20318;SDS011;10317;47.254;11.314;2024-03-22T05:40:07;4.07;;;3.67;;
20318;SDS011;10317;47.254;11.314;2024-03-22T05:42:33;5.47;;;4.07;;
20318;SDS011;10317;47.254;11.314;2024-03-22T05:44:59;5.18;;;3.70;;
20318;SDS011;10317;47.254;11.314;2024-03-22T05:47:25;4.85;;;3.30;;
20318;SDS011;10317;47.254;11.314;2024-03-22T05:49:51;5.20;;;3.80;;
20318;SDS011;10317;47.254;11.314;2024-03-22T05:52:17;4.22;;;3.58;;
20318;SDS011;10317;47.254;11.314;2024-03-22T05:54:43;4.63;;;3.70;;
20318;SDS011;10317;47.254;11.314;2024-03-22T05:57:09;5.68;;;3.80;;
20318;SDS011;10317;47.254;11.314;2024-03-22T05:59:35;3.95;;;3.55;;
20318;SDS011;10317;47.254;11.314;2024-03-22T06:02:01;4.22;;;3.70;;
20318;SDS011;10317;47.254;11.314;2024-03-22T06:04:26;4.63;;;3.20;;
20318;SDS011;10317;47.254;11.314;2024-03-22T06:06:52;4.00;;;3.70;;
20318;SDS011;10317;47.254;11.314;2024-03-22T06:09:18;3.42;;;3.20;;
20318;SDS011;10317;47.254;11.314;2024-03-22T06:11:59;4.55;;;3.13;;
20318;SDS011;10317;47.254;11.314;2024-03-22T06:14:25;3.67;;;3.40;;
20318;SDS011;10317;47.254;11.314;2024-03-22T06:16:51;4.10;;;3.70;;
20318;SDS011;10317;47.254;11.314;2024-03-22T06:19:16;3.55;;;3.25;;
20318;SDS011;10317;47.254;11.314;2024-03-22T06:21:42;5.72;;;3.72;;
20318;SDS011;10317;47.254;11.314;2024-03-22T06:24:08;3.85;;;3.55;;
20318;SDS011;10317;47.254;11.314;2024-03-22T06:26:33;4.72;;;3.47;;
20318;SDS011;10317;47.254;11.314;2024-03-22T06:28:59;4.10;;;3.80;;
20318;SDS011;10317;47.254;11.314;2024-03-22T06:31:24;4.13;;;3.78;;
20318;SDS011;10317;47.254;11.314;2024-03-22T06:33:50;3.55;;;3.25;;
20318;SDS011;10317;47.254;11.314;2024-03-22T06:36:16;3.88;;;3.40;;
20318;SDS011;10317;47.254;11.314;2024-03-22T06:38:43;3.60;;;3.08;;
20318;SDS011;10317;47.254;11.314;2024-03-22T06:41:08;3.53;;;3.33;;
20318;SDS011;10317;47.254;11.314;2024-03-22T06:43:34;4.22;;;3.60;;
20318;SDS011;10317;47.254;11.314;2024-03-22T06:46:00;3.35;;;3.05;;
20318;SDS011;10317;47.254;11.314;2024-03-22T06:48:25;6.53;;;3.75;;
20318;SDS011;10317;47.254;11.314;2024-03-22T06:50:51;4.05;;;3.63;;
20318;SDS011;10317;47.254;11.314;2024-03-22T06:53:17;3.45;;;3.17;;
20318;SDS011;10317;47.254;11.314;2024-03-22T06:55:42;4.47;;;3.30;;
20318;SDS011;10317;47.254;11.314;2024-03-22T06:58:08;5.30;;;4.65;;
20318;SDS011;10317;47.254;11.314;2024-03-22T07:00:33;3.60;;;3.30;;
20318;SDS011;10317;47.254;11.314;2024-03-22T07:03:00;4.05;;;3.65;;
20318;SDS011;10317;47.254;11.314;2024-03-22T07:05:27;4.20;;;3.80;;
20318;SDS011;10317;47.254;11.314;2024-03-22T07:07:53;3.70;;;3.40;;
20318;SDS011;10317;47.254;11.314;2024-03-22T07:10:22;3.05;;;2.90;;
20318;SDS011;10317;47.254;11.314;2024-03-22T07:12:52;3.15;;;2.95;;
20318;SDS011;10317;47.254;11.314;2024-03-22T07:15:23;3.13;;;2.90;;
20318;SDS011;10317;47.254;11.314;2024-03-22T07:17:49;3.33;;;3.13;;
20318;SDS011;10317;47.254;11.314;2024-03-22T07:20:16;5.25;;;3.42;;
20318;SDS011;10317;47.254;11.314;2024-03-22T07:22:41;5.40;;;3.67;;
20318;SDS011;10317;47.254;11.314;2024-03-22T07:25:07;3.42;;;3.13;;
20318;SDS011;10317;47.254;11.314;2024-03-22T07:27:36;3.40;;;3.13;;
20318;SDS011;10317;47.254;11.314;2024-03-22T07:30:02;4.28;;;3.55;;
20318;SDS011;10317;47.254;11.314;2024-03-22T07:32:29;3.63;;;3.33;;
20318;SDS011;10317;47.254;11.314;2024-03-22T07:34:55;2.95;;;2.75;;
20318;SDS011;10317;47.254;11.314;2024-03-22T07:37:20;3.70;;;3.42;;
20318;SDS011;10317;47.254;11.314;2024-03-22T07:39:46;3.75;;;3.45;;
20318;SDS011;10317;47.254;11.314;2024-03-22T07:42:12;3.75;;;3.45;;
20318;SDS011;10317;47.254;11.314;2024-03-22T07:44:38;4.25;;;3.35;;
20318;SDS011;10317;47.254;11.314;2024-03-22T07:47:04;3.33;;;3.13;;
20318;SDS011;10317;47.254;11.314;2024-03-22T07:49:29;4.82;;;2.78;;
20318;SDS011;10317;47.254;11.314;2024-03-22T07:51:56;2.83;;;2.63;;
20318;SDS011;10317;47.254;11.314;2024-03-22T07:54:22;3.40;;;2.55;;
20318;SDS011;10317;47.254;11.314;2024-03-22T07:56:48;3.35;;;3.05;;
20318;SDS011;10317;47.254;11.314;2024-03-22T07:59:13;3.85;;;3.45;;
20318;SDS011;10317;47.254;11.314;2024-03-22T08:01:39;3.00;;;2.80;;
20318;SDS011;10317;47.254;11.314;2024-03-22T08:04:05;2.97;;;2.78;;
20318;SDS011;10317;47.254;11.314;2024-03-22T08:06:31;2.97;;;2.60;;
20318;SDS011;10317;47.254;11.314;2024-03-22T08:08:56;2.80;;;2.60;;
20318;SDS011;10317;47.254;11.314;2024-03-22T08:11:22;3.15;;;2.85;;
20318;SDS011;10317;47.254;11.314;2024-03-22T08:13:48;2.80;;;2.13;;
20318;SDS011;10317;47.254;11.314;2024-03-22T08:16:14;3.50;;;3.08;;
20318;SDS011;10317;47.254;11.314;2024-03-22T08:18:39;2.72;;;2.33;;
20318;SDS011;10317;47.254;11.314;2024-03-22T08:21:05;2.53;;;2.33;;
20318;SDS011;10317;47.254;11.314;2024-03-22T08:23:31;2.85;;;2.55;;
20318;SDS011;10317;47.254;11.314;2024-03-22T08:25:57;3.45;;;2.85;;
20318;SDS011;10317;47.254;11.314;2024-03-22T08:28:23;3.80;;;2.65;;
20318;SDS011;10317;47.254;11.314;2024-03-22T08:30:48;3.10;;;2.90;;
20318;SDS011;10317;47.254;11.314;2024-03-22T08:33:14;2.85;;;2.30;;
20318;SDS011;10317;47.254;11.314;2024-03-22T08:35:40;3.13;;;2.47;;
20318;SDS011;10317;47.254;11.314;2024-03-22T08:38:06;2.90;;;2.30;;
20318;SDS011;10317;47.254;11.314;2024-03-22T08:40:40;2.42;;;2.25;;
20318;SDS011;10317;47.254;11.314;2024-03-22T08:43:06;1.80;;;1.70;;
20318;SDS011;10317;47.254;11.314;2024-03-22T08:45:34;2.30;;;2.10;;
20318;SDS011;10317;47.254;11.314;2024-03-22T08:48:01;1.92;;;1.80;;
20318;SDS011;10317;47.254;11.314;2024-03-22T08:50:26;2.30;;;2.10;;
20318;SDS011;10317;47.254;11.314;2024-03-22T08:52:52;2.33;;;2.13;;
20318;SDS011;10317;47.254;11.314;2024-03-22T08:55:18;3.22;;;2.38;;
20318;SDS011;10317;47.254;11.314;2024-03-22T08:57:43;1.70;;;1.60;;
20318;SDS011;10317;47.254;11.314;2024-03-22T09:00:09;3.97;;;1.92;;
20318;SDS011;10317;47.254;11.314;2024-03-22T09:02:35;2.85;;;2.00;;
20318;SDS011;10317;47.254;11.314;2024-03-22T09:05:02;2.22;;;2.03;;
20318;SDS011;10317;47.254;11.314;2024-03-22T09:07:27;1.60;;;1.55;;
20318;SDS011;10317;47.254;11.314;2024-03-22T09:09:53;2.15;;;2.03;;
20318;SDS011;10317;47.254;11.314;2024-03-22T09:12:19;2.03;;;1.92;;
20318;SDS011;10317;47.254;11.314;2024-03-22T09:14:44;1.65;;;1.55;;
20318;SDS011;10317;47.254;11.314;2024-03-22T09:17:10;2.67;;;1.60;;
20318;SDS011;10317;47.254;11.314;2024-03-22T09:19:36;1.98;;;1.88;;
20318;SDS011;10317;47.254;11.314;2024-03-22T09:22:02;1.83;;;1.70;;
20318;SDS011;10317;47.254;11.314;2024-03-22T09:24:28;2.15;;;1.95;;
20318;SDS011;10317;47.254;11.314;2024-03-22T09:26:53;1.65;;;1.60;;
20318;SDS011;10317;47.254;11.314;2024-03-22T09:29:19;2.55;;;1.63;;
20318;SDS011;10317;47.254;11.314;2024-03-22T09:31:45;1.48;;;1.48;;
20318;SDS011;10317;47.254;11.314;2024-03-22T09:34:11;3.40;;;1.80;;
20318;SDS011;10317;47.254;11.314;2024-03-22T09:36:37;1.80;;;1.70;;
20318;SDS011;10317;47.254;11.314;2024-03-22T09:39:03;1.77;;;1.30;;
20318;SDS011;10317;47.254;11.314;2024-03-22T09:41:29;2.58;;;1.65;;
20318;SDS011;10317;47.254;11.314;2024-03-22T09:43:57;1.38;;;1.27;;
20318;SDS011;10317;47.254;11.314;2024-03-22T09:46:25;1.65;;;1.55;;
20318;SDS011;10317;47.254;11.314;2024-03-22T09:48:52;1.60;;;1.50;;
20318;SDS011;10317;47.254;11.314;2024-03-22T09:51:19;1.73;;;1.38;;
20318;SDS011;10317;47.254;11.314;2024-03-22T09:53:47;4.45;;;1.63;;
20318;SDS011;10317;47.254;11.314;2024-03-22T09:56:14;1.80;;;1.70;;
20318;SDS011;10317;47.254;11.314;2024-03-22T09:58:41;1.42;;;1.33;;
20318;SDS011;10317;47.254;11.314;2024-03-22T10:01:07;2.75;;;1.50;;
20318;SDS011;10317;47.254;11.314;2024-03-22T10:03:33;1.30;;;1.25;;
20318;SDS011;10317;47.254;11.314;2024-03-22T10:05:59;1.48;;;1.38;;
20318;SDS011;10317;47.254;11.314;2024-03-22T10:08:25;2.53;;;1.50;;
20318;SDS011;10317;47.254;11.314;2024-03-22T10:10:50;1.38;;;1.27;;
20318;SDS011;10317;47.254;11.314;2024-03-22T10:13:16;1.58;;;1.52;;
20318;SDS011;10317;47.254;11.314;2024-03-22T10:15:42;1.70;;;1.60;;
20318;SDS011;10317;47.254;11.314;2024-03-22T10:18:09;1.98;;;1.63;;
20318;SDS011;10317;47.254;11.314;2024-03-22T10:20:35;1.60;;;1.55;;
20318;SDS011;10317;47.254;11.314;2024-03-22T10:23:01;1.48;;;1.38;;
20318;SDS011;10317;47.254;11.314;2024-03-22T10:25:27;2.58;;;1.60;;
20318;SDS011;10317;47.254;11.314;2024-03-22T10:27:56;1.38;;;1.38;;
20318;SDS011;10317;47.254;11.314;2024-03-22T10:30:24;5.22;;;1.63;;
20318;SDS011;10317;47.254;11.314;2024-03-22T10:32:50;1.83;;;1.73;;
20318;SDS011;10317;47.254;11.314;2024-03-22T10:35:16;1.40;;;1.30;;
20318;SDS011;10317;47.254;11.314;2024-03-22T10:37:42;1.65;;;1.48;;
20318;SDS011;10317;47.254;11.314;2024-03-22T10:40:08;1.70;;;1.60;;
20318;SDS011;10317;47.254;11.314;2024-03-22T10:42:41;2.25;;;1.80;;
20318;SDS011;10317;47.254;11.314;2024-03-22T10:45:09;1.70;;;1.60;;
20318;SDS011;10317;47.254;11.314;2024-03-22T10:47:36;1.58;;;1.33;;
20318;SDS011;10317;47.254;11.314;2024-03-22T10:50:04;1.60;;;1.50;;
20318;SDS011;10317;47.254;11.314;2024-03-22T10:52:38;1.63;;;1.52;;
20318;SDS011;10317;47.254;11.314;2024-03-22T10:55:08;1.42;;;1.42;;
20318;SDS011;10317;47.254;11.314;2024-03-22T10:57:38;3.50;;;1.27;;
20318;SDS011;10317;47.254;11.314;2024-03-22T11:00:08;1.30;;;1.30;;
20318;SDS011;10317;47.254;11.314;2024-03-22T11:02:37;1.60;;;1.50;;
20318;SDS011;10317;47.254;11.314;2024-03-22T11:05:04;4.65;;;1.70;;
20318;SDS011;10317;47.254;11.314;2024-03-22T11:07:32;1.77;;;1.50;;
20318;SDS011;10317;47.254;11.314;2024-03-22T11:09:58;1.58;;;1.48;;
20318;SDS011;10317;47.254;11.314;2024-03-22T11:12:27;1.58;;;1.40;;
20318;SDS011;10317;47.254;11.314;2024-03-22T11:14:55;1.40;;;1.40;;
20318;SDS011;10317;47.254;11.314;2024-03-22T11:17:21;2.30;;;1.23;;
20318;SDS011;10317;47.254;11.314;2024-03-22T11:19:50;1.42;;;1.30;;
20318;SDS011;10317;47.254;11.314;2024-03-22T11:22:16;1.52;;;1.42;;
20318;SDS011;10317;47.254;11.314;2024-03-22T11:24:43;2.45;;;1.30;;
20318;SDS011;10317;47.254;11.314;2024-03-22T11:27:09;1.40;;;1.30;;
20318;SDS011;10317;47.254;11.314;2024-03-22T11:29:36;1.58;;;1.42;;
20318;SDS011;10317;47.254;11.314;2024-03-22T11:32:04;1.80;;;1.70;;
20318;SDS011;10317;47.254;11.314;2024-03-22T11:34:30;1.58;;;1.45;;
20318;SDS011;10317;47.254;11.314;2024-03-22T11:36:56;2.75;;;1.58;;
20318;SDS011;10317;47.254;11.314;2024-03-22T11:39:21;3.35;;;1.40;;
20318;SDS011;10317;47.254;11.314;2024-03-22T11:41:47;3.42;;;1.85;;
20318;SDS011;10317;47.254;11.314;2024-03-22T11:44:14;2.40;;;1.70;;
20318;SDS011;10317;47.254;11.314;2024-03-22T11:46:43;1.50;;;1.40;;
20318;SDS011;10317;47.254;11.314;2024-03-22T11:49:09;1.40;;;1.30;;
20318;SDS011;10317;47.254;11.314;2024-03-22T11:51:36;1.40;;;1.40;;
20318;SDS011;10317;47.254;11.314;2024-03-22T11:54:03;1.40;;;1.40;;
20318;SDS011;10317;47.254;11.314;2024-03-22T11:56:28;2.88;;;1.48;;
20318;SDS011;10317;47.254;11.314;2024-03-22T11:58:59;2.42;;;1.10;;
20318;SDS011;10317;47.254;11.314;2024-03-22T12:01:26;1.20;;;0.98;;
20318;SDS011;10317;47.254;11.314;2024-03-22T12:03:52;5.25;;;1.40;;
20318;SDS011;10317;47.254;11.314;2024-03-22T12:06:19;1.33;;;1.33;;
20318;SDS011;10317;47.254;11.314;2024-03-22T12:08:46;1.48;;;1.38;;
20318;SDS011;10317;47.254;11.314;2024-03-22T12:11:12;1.88;;;1.20;;
20318;SDS011;10317;47.254;11.314;2024-03-22T12:13:39;1.05;;;0.95;;
20318;SDS011;10317;47.254;11.314;2024-03-22T12:16:05;0.88;;;0.88;;
20318;SDS011;10317;47.254;11.314;2024-03-22T12:18:32;1.17;;;1.17;;
20318;SDS011;10317;47.254;11.314;2024-03-22T12:20:58;1.83;;;1.20;;
20318;SDS011;10317;47.254;11.314;2024-03-22T12:23:25;1.58;;;1.48;;
20318;SDS011;10317;47.254;11.314;2024-03-22T12:25:51;1.50;;;1.40;;
20318;SDS011;10317;47.254;11.314;2024-03-22T12:28:17;1.67;;;1.08;;
20318;SDS011;10317;47.254;11.314;2024-03-22T12:30:43;1.25;;;1.20;;
20318;SDS011;10317;47.254;11.314;2024-03-22T12:33:09;3.55;;;1.10;;
20318;SDS011;10317;47.254;11.314;2024-03-22T12:35:36;1.17;;;1.10;;
20318;SDS011;10317;47.254;11.314;2024-03-22T12:38:03;2.55;;;1.25;;
20318;SDS011;10317;47.254;11.314;2024-03-22T12:40:29;1.45;;;1.08;;
20318;SDS011;10317;47.254;11.314;2024-03-22T12:42:55;3.25;;;0.90;;
20318;SDS011;10317;47.254;11.314;2024-03-22T12:45:21;2.92;;;1.10;;
20318;SDS011;10317;47.254;11.314;2024-03-22T12:47:47;0.90;;;0.90;;
20318;SDS011;10317;47.254;11.314;2024-03-22T12:50:12;2.22;;;1.42;;
20318;SDS011;10317;47.254;11.314;2024-03-22T12:52:39;2.35;;;1.20;;
20318;SDS011;10317;47.254;11.314;2024-03-22T12:55:05;2.92;;;1.30;;
20318;SDS011;10317;47.254;11.314;2024-03-22T12:57:31;3.00;;;1.20;;
20318;SDS011;10317;47.254;11.314;2024-03-22T12:59:57;1.85;;;1.00;;
20318;SDS011;10317;47.254;11.314;2024-03-22T13:02:23;1.58;;;1.00;;
20318;SDS011;10317;47.254;11.314;2024-03-22T13:04:51;1.35;;;1.30;;
20318;SDS011;10317;47.254;11.314;2024-03-22T13:07:18;1.00;;;0.90;;
20318;SDS011;10317;47.254;11.314;2024-03-22T13:09:44;1.98;;;1.05;;
20318;SDS011;10317;47.254;11.314;2024-03-22T13:12:10;1.10;;;1.10;;
20318;SDS011;10317;47.254;11.314;2024-03-22T13:14:36;1.50;;;1.40;;
20318;SDS011;10317;47.254;11.314;2024-03-22T13:17:02;1.08;;;1.08;;
20318;SDS011;10317;47.254;11.314;2024-03-22T13:19:27;2.58;;;1.20;;
20318;SDS011;10317;47.254;11.314;2024-03-22T13:21:53;2.42;;;1.10;;
20318;SDS011;10317;47.254;11.314;2024-03-22T13:24:19;1.48;;;1.25;;
20318;SDS011;10317;47.254;11.314;2024-03-22T13:26:44;1.30;;;1.20;;
20318;SDS011;10317;47.254;11.314;2024-03-22T13:29:10;2.72;;;1.25;;
20318;SDS011;10317;47.254;11.314;2024-03-22T13:31:39;1.95;;;1.30;;
20318;SDS011;10317;47.254;11.314;2024-03-22T13:34:05;0.95;;;0.93;;
20318;SDS011;10317;47.254;11.314;2024-03-22T13:36:30;1.00;;;1.00;;
20318;SDS011;10317;47.254;11.314;2024-03-22T13:38:58;1.23;;;1.17;;
20318;SDS011;10317;47.254;11.314;2024-03-22T13:41:24;1.00;;;1.00;;
20318;SDS011;10317;47.254;11.314;2024-03-22T13:43:49;1.20;;;1.08;;
20318;SDS011;10317;47.254;11.314;2024-03-22T13:46:15;1.02;;;1.02;;
20318;SDS011;10317;47.254;11.314;2024-03-22T13:48:42;1.00;;;1.00;;
20318;SDS011;10317;47.254;11.314;2024-03-22T13:51:08;1.17;;;1.17;;
20318;SDS011;10317;47.254;11.314;2024-03-22T13:53:34;1.65;;;1.00;;
20318;SDS011;10317;47.254;11.314;2024-03-22T13:56:01;1.05;;;1.00;;
20318;SDS011;10317;47.254;11.314;2024-03-22T13:58:26;1.27;;;1.05;;
20318;SDS011;10317;47.254;11.314;2024-03-22T14:00:52;1.45;;;0.98;;
20318;SDS011;10317;47.254;11.314;2024-03-22T14:03:18;2.28;;;1.13;;
20318;SDS011;10317;47.254;11.314;2024-03-22T14:05:44;1.15;;;1.15;;
20318;SDS011;10317;47.254;11.314;2024-03-22T14:08:10;0.88;;;0.88;;
20318;SDS011;10317;47.254;11.314;2024-03-22T14:10:35;1.00;;;1.00;;
20318;SDS011;10317;47.254;11.314;2024-03-22T14:13:01;0.90;;;0.90;;
20318;SDS011;10317;47.254;11.314;2024-03-22T14:15:28;1.67;;;1.15;;
20318;SDS011;10317;47.254;11.314;2024-03-22T14:17:57;1.90;;;1.08;;
20318;SDS011;10317;47.254;11.314;2024-03-22T14:20:23;1.52;;;1.05;;
20318;SDS011;10317;47.254;11.314;2024-03-22T14:22:50;1.00;;;1.00;;
20318;SDS011;10317;47.254;11.314;2024-03-22T14:25:16;1.23;;;1.20;;
20318;SDS011;10317;47.254;11.314;2024-03-22T14:27:42;1.25;;;1.15;;